sensor_id;sensor_type;location;lat;lon;timestamp;temperature;humidity
67186;HTU21D;54116;53.518;49.398;2024-02-04T00:01:16;-16.64;118.99
67186;HTU21D;54116;53.518;49.398;2024-02-04T00:03:42;-16.56;118.99
67186;HTU21D;54116;53.518;49.398;2024-02-04T00:06:08;-16.51;118.99
67186;HTU21D;54116;53.518;49.398;2024-02-04T00:08:34;-16.44;118.99
67186;HTU21D;54116;53.518;49.398;2024-02-04T00:11:00;-16.50;118.99
67186;HTU21D;54116;53.518;49.398;2024-02-04T00:13:26;-16.56;118.99
67186;HTU21D;54116;53.518;49.398;2024-02-04T00:15:52;-16.28;118.99
67186;HTU21D;54116;53.518;49.398;2024-02-04T00:18:20;-16.33;118.99
67186;HTU21D;54116;53.518;49.398;2024-02-04T00:20:46;-16.19;118.99
67186;HTU21D;54116;53.518;49.398;2024-02-04T00:23:12;-16.14;118.99
67186;HTU21D;54116;53.518;49.398;2024-02-04T00:25:38;-16.10;118.99
67186;HTU21D;54116;53.518;49.398;2024-02-04T00:28:08;-16.20;118.99
67186;HTU21D;54116;53.518;49.398;2024-02-04T00:30:38;-16.24;118.99
67186;HTU21D;54116;53.518;49.398;2024-02-04T00:33:05;-16.33;118.99
67186;HTU21D;54116;53.518;49.398;2024-02-04T00:35:31;-16.29;118.99
67186;HTU21D;54116;53.518;49.398;2024-02-04T00:37:57;-16.24;118.99
67186;HTU21D;54116;53.518;49.398;2024-02-04T00:40:23;-16.25;118.99
67186;HTU21D;54116;53.518;49.398;2024-02-04T00:42:49;-16.29;118.99
67186;HTU21D;54116;53.518;49.398;2024-02-04T00:45:15;-16.20;118.99
67186;HTU21D;54116;53.518;49.398;2024-02-04T00:47:42;-16.22;118.99
67186;HTU21D;54116;53.518;49.398;2024-02-04T00:50:08;-16.12;118.99
67186;HTU21D;54116;53.518;49.398;2024-02-04T00:52:34;-16.23;118.99
67186;HTU21D;54116;53.518;49.398;2024-02-04T00:55:00;-16.17;118.99
67186;HTU21D;54116;53.518;49.398;2024-02-04T00:57:26;-16.13;118.99
67186;HTU21D;54116;53.518;49.398;2024-02-04T00:59:53;-16.06;118.99
67186;HTU21D;54116;53.518;49.398;2024-02-04T01:02:19;-16.10;118.99
67186;HTU21D;54116;53.518;49.398;2024-02-04T01:04:45;-16.19;118.99
67186;HTU21D;54116;53.518;49.398;2024-02-04T01:07:11;-15.97;118.99
67186;HTU21D;54116;53.518;49.398;2024-02-04T01:09:37;-15.96;118.99
67186;HTU21D;54116;53.518;49.398;2024-02-04T01:12:03;-15.94;118.99
67186;HTU21D;54116;53.518;49.398;2024-02-04T01:14:30;-15.94;118.99
67186;HTU21D;54116;53.518;49.398;2024-02-04T01:16:56;-15.93;118.99
67186;HTU21D;54116;53.518;49.398;2024-02-04T01:19:23;-16.02;118.99
67186;HTU21D;54116;53.518;49.398;2024-02-04T01:21:49;-15.94;118.99
67186;HTU21D;54116;53.518;49.398;2024-02-04T01:24:15;-16.02;118.99
67186;HTU21D;54116;53.518;49.398;2024-02-04T01:26:42;-15.95;118.99
67186;HTU21D;54116;53.518;49.398;2024-02-04T01:29:08;-15.82;118.99
67186;HTU21D;54116;53.518;49.398;2024-02-04T01:31:35;-15.80;118.99
67186;HTU21D;54116;53.518;49.398;2024-02-04T01:34:01;-15.88;118.99
67186;HTU21D;54116;53.518;49.398;2024-02-04T01:36:27;-15.77;118.99
67186;HTU21D;54116;53.518;49.398;2024-02-04T01:38:53;-15.69;118.99
67186;HTU21D;54116;53.518;49.398;2024-02-04T01:41:19;-15.64;118.99
67186;HTU21D;54116;53.518;49.398;2024-02-04T01:43:46;-15.65;118.99
67186;HTU21D;54116;53.518;49.398;2024-02-04T01:46:12;-15.75;118.99
67186;HTU21D;54116;53.518;49.398;2024-02-04T01:48:39;-15.72;118.99
67186;HTU21D;54116;53.518;49.398;2024-02-04T01:51:05;-15.62;118.99
67186;HTU21D;54116;53.518;49.398;2024-02-04T01:53:32;-15.61;118.99
67186;HTU21D;54116;53.518;49.398;2024-02-04T01:56:00;-15.62;118.99
67186;HTU21D;54116;53.518;49.398;2024-02-04T01:58:26;-15.59;118.99
67186;HTU21D;54116;53.518;49.398;2024-02-04T02:00:52;-15.64;118.99
67186;HTU21D;54116;53.518;49.398;2024-02-04T02:03:19;-15.61;118.99
67186;HTU21D;54116;53.518;49.398;2024-02-04T02:05:47;-15.48;118.99
67186;HTU21D;54116;53.518;49.398;2024-02-04T02:08:13;-15.25;118.99
67186;HTU21D;54116;53.518;49.398;2024-02-04T02:10:39;-15.28;118.99
67186;HTU21D;54116;53.518;49.398;2024-02-04T02:13:16;-15.16;118.99
67186;HTU21D;54116;53.518;49.398;2024-02-04T02:15:51;-15.28;118.99
67186;HTU21D;54116;53.518;49.398;2024-02-04T02:24:25;-15.10;118.99
67186;HTU21D;54116;53.518;49.398;2024-02-04T02:26:52;-15.07;118.99
67186;HTU21D;54116;53.518;49.398;2024-02-04T02:29:19;-15.10;118.99
67186;HTU21D;54116;53.518;49.398;2024-02-04T02:31:45;-15.04;118.99
67186;HTU21D;54116;53.518;49.398;2024-02-04T02:34:12;-15.11;118.99
67186;HTU21D;54116;53.518;49.398;2024-02-04T02:36:45;-15.15;118.99
67186;HTU21D;54116;53.518;49.398;2024-02-04T02:39:18;-15.15;118.99
67186;HTU21D;54116;53.518;49.398;2024-02-04T02:41:50;-15.04;118.99
67186;HTU21D;54116;53.518;49.398;2024-02-04T02:44:19;-15.15;118.99
67186;HTU21D;54116;53.518;49.398;2024-02-04T02:46:47;-15.09;118.99
67186;HTU21D;54116;53.518;49.398;2024-02-04T02:49:14;-15.03;118.99
67186;HTU21D;54116;53.518;49.398;2024-02-04T02:51:40;-15.13;118.99
67186;HTU21D;54116;53.518;49.398;2024-02-04T02:54:06;-15.18;118.99
67186;HTU21D;54116;53.518;49.398;2024-02-04T02:56:32;-15.01;118.99
67186;HTU21D;54116;53.518;49.398;2024-02-04T02:58:58;-14.96;118.99
67186;HTU21D;54116;53.518;49.398;2024-02-04T03:01:24;-14.85;118.99
67186;HTU21D;54116;53.518;49.398;2024-02-04T03:03:50;-14.92;118.99
67186;HTU21D;54116;53.518;49.398;2024-02-04T03:06:16;-14.72;118.99
67186;HTU21D;54116;53.518;49.398;2024-02-04T03:08:42;-14.82;118.99
67186;HTU21D;54116;53.518;49.398;2024-02-04T03:11:08;-14.79;118.99
67186;HTU21D;54116;53.518;49.398;2024-02-04T03:13:38;-14.76;118.99
67186;HTU21D;54116;53.518;49.398;2024-02-04T03:16:14;-14.74;118.99
67186;HTU21D;54116;53.518;49.398;2024-02-04T03:18:40;-14.76;118.99
67186;HTU21D;54116;53.518;49.398;2024-02-04T03:21:14;-14.60;118.99
67186;HTU21D;54116;53.518;49.398;2024-02-04T03:23:43;-14.61;118.99
67186;HTU21D;54116;53.518;49.398;2024-02-04T03:26:16;-14.65;118.99
67186;HTU21D;54116;53.518;49.398;2024-02-04T03:28:45;-14.57;118.99
67186;HTU21D;54116;53.518;49.398;2024-02-04T03:31:11;-14.52;118.99
67186;HTU21D;54116;53.518;49.398;2024-02-04T03:33:37;-14.70;118.99
67186;HTU21D;54116;53.518;49.398;2024-02-04T03:36:04;-14.61;118.99
67186;HTU21D;54116;53.518;49.398;2024-02-04T03:38:30;-14.55;118.99
67186;HTU21D;54116;53.518;49.398;2024-02-04T03:40:56;-14.54;118.99
67186;HTU21D;54116;53.518;49.398;2024-02-04T03:43:22;-14.56;118.99
67186;HTU21D;54116;53.518;49.398;2024-02-04T03:45:48;-14.62;118.99
67186;HTU21D;54116;53.518;49.398;2024-02-04T03:48:14;-14.57;118.99
67186;HTU21D;54116;53.518;49.398;2024-02-04T03:50:40;-14.59;118.99
67186;HTU21D;54116;53.518;49.398;2024-02-04T03:53:07;-14.61;118.99
67186;HTU21D;54116;53.518;49.398;2024-02-04T03:55:33;-14.55;118.99
67186;HTU21D;54116;53.518;49.398;2024-02-04T03:58:00;-14.55;118.99
67186;HTU21D;54116;53.518;49.398;2024-02-04T04:00:26;-14.55;118.99
67186;HTU21D;54116;53.518;49.398;2024-02-04T04:02:52;-14.55;118.99
67186;HTU21D;54116;53.518;49.398;2024-02-04T04:05:18;-14.34;118.99
67186;HTU21D;54116;53.518;49.398;2024-02-04T04:07:44;-14.37;118.99
67186;HTU21D;54116;53.518;49.398;2024-02-04T04:10:11;-14.45;118.99
67186;HTU21D;54116;53.518;49.398;2024-02-04T04:12:37;-14.46;118.99
67186;HTU21D;54116;53.518;49.398;2024-02-04T04:15:04;-14.30;118.99
67186;HTU21D;54116;53.518;49.398;2024-02-04T04:17:30;-14.32;118.99
67186;HTU21D;54116;53.518;49.398;2024-02-04T04:19:56;-14.33;118.99
67186;HTU21D;54116;53.518;49.398;2024-02-04T04:22:22;-14.37;118.99
67186;HTU21D;54116;53.518;49.398;2024-02-04T04:24:48;-14.35;118.99
67186;HTU21D;54116;53.518;49.398;2024-02-04T04:27:14;-14.25;118.99
67186;HTU21D;54116;53.518;49.398;2024-02-04T04:29:40;-14.17;118.99
67186;HTU21D;54116;53.518;49.398;2024-02-04T04:32:06;-14.17;118.99
67186;HTU21D;54116;53.518;49.398;2024-02-04T04:34:32;-14.17;118.99
67186;HTU21D;54116;53.518;49.398;2024-02-04T04:36:59;-14.19;118.99
67186;HTU21D;54116;53.518;49.398;2024-02-04T04:39:25;-14.16;118.99
67186;HTU21D;54116;53.518;49.398;2024-02-04T04:41:51;-14.17;118.99
67186;HTU21D;54116;53.518;49.398;2024-02-04T04:44:17;-14.08;118.99
67186;HTU21D;54116;53.518;49.398;2024-02-04T04:46:43;-14.04;118.99
67186;HTU21D;54116;53.518;49.398;2024-02-04T04:49:09;-14.16;118.99
67186;HTU21D;54116;53.518;49.398;2024-02-04T04:51:35;-14.19;118.99
67186;HTU21D;54116;53.518;49.398;2024-02-04T04:54:02;-14.08;118.99
67186;HTU21D;54116;53.518;49.398;2024-02-04T04:56:28;-13.98;118.99
67186;HTU21D;54116;53.518;49.398;2024-02-04T04:58:54;-14.12;118.99
67186;HTU21D;54116;53.518;49.398;2024-02-04T05:01:20;-13.95;118.99
67186;HTU21D;54116;53.518;49.398;2024-02-04T05:03:46;-14.12;118.99
67186;HTU21D;54116;53.518;49.398;2024-02-04T05:06:13;-14.05;118.99
67186;HTU21D;54116;53.518;49.398;2024-02-04T05:08:39;-13.95;118.99
67186;HTU21D;54116;53.518;49.398;2024-02-04T05:11:08;-13.83;118.99
67186;HTU21D;54116;53.518;49.398;2024-02-04T05:13:34;-13.72;118.99
67186;HTU21D;54116;53.518;49.398;2024-02-04T05:16:00;-13.69;118.99
67186;HTU21D;54116;53.518;49.398;2024-02-04T05:18:26;-13.71;118.99
67186;HTU21D;54116;53.518;49.398;2024-02-04T05:20:52;-13.62;118.99
67186;HTU21D;54116;53.518;49.398;2024-02-04T05:23:18;-13.45;118.99
67186;HTU21D;54116;53.518;49.398;2024-02-04T05:25:46;-13.30;118.99
67186;HTU21D;54116;53.518;49.398;2024-02-04T05:28:12;-13.34;118.99
67186;HTU21D;54116;53.518;49.398;2024-02-04T05:30:38;-13.21;118.99
67186;HTU21D;54116;53.518;49.398;2024-02-04T05:33:04;-13.16;118.99
67186;HTU21D;54116;53.518;49.398;2024-02-04T05:35:30;-13.22;118.99
67186;HTU21D;54116;53.518;49.398;2024-02-04T05:37:57;-13.28;118.99
67186;HTU21D;54116;53.518;49.398;2024-02-04T05:40:23;-13.21;118.99
67186;HTU21D;54116;53.518;49.398;2024-02-04T05:42:49;-13.19;118.99
67186;HTU21D;54116;53.518;49.398;2024-02-04T05:45:15;-13.24;118.99
67186;HTU21D;54116;53.518;49.398;2024-02-04T05:47:41;-13.13;118.99
67186;HTU21D;54116;53.518;49.398;2024-02-04T05:50:07;-12.92;118.99
67186;HTU21D;54116;53.518;49.398;2024-02-04T05:52:34;-12.96;118.99
67186;HTU21D;54116;53.518;49.398;2024-02-04T05:55:00;-13.09;118.99
67186;HTU21D;54116;53.518;49.398;2024-02-04T05:57:26;-12.92;118.99
67186;HTU21D;54116;53.518;49.398;2024-02-04T05:59:52;-13.08;118.99
67186;HTU21D;54116;53.518;49.398;2024-02-04T06:02:18;-12.96;118.99
67186;HTU21D;54116;53.518;49.398;2024-02-04T06:04:45;-12.77;118.99
67186;HTU21D;54116;53.518;49.398;2024-02-04T06:07:11;-12.89;118.99
67186;HTU21D;54116;53.518;49.398;2024-02-04T06:09:37;-12.99;118.99
67186;HTU21D;54116;53.518;49.398;2024-02-04T06:12:03;-12.86;118.99
67186;HTU21D;54116;53.518;49.398;2024-02-04T06:14:33;-13.10;118.99
67186;HTU21D;54116;53.518;49.398;2024-02-04T06:17:00;-12.94;118.99
67186;HTU21D;54116;53.518;49.398;2024-02-04T06:19:26;-13.09;118.99
67186;HTU21D;54116;53.518;49.398;2024-02-04T06:21:52;-12.95;118.99
67186;HTU21D;54116;53.518;49.398;2024-02-04T06:24:18;-12.92;118.99
67186;HTU21D;54116;53.518;49.398;2024-02-04T06:26:46;-12.77;118.99
67186;HTU21D;54116;53.518;49.398;2024-02-04T06:29:14;-12.51;118.99
67186;HTU21D;54116;53.518;49.398;2024-02-04T06:31:44;-12.38;118.99
67186;HTU21D;54116;53.518;49.398;2024-02-04T06:34:11;-12.45;118.99
67186;HTU21D;54116;53.518;49.398;2024-02-04T06:36:42;-12.32;118.99
67186;HTU21D;54116;53.518;49.398;2024-02-04T06:39:09;-12.17;118.99
67186;HTU21D;54116;53.518;49.398;2024-02-04T06:41:35;-12.00;118.99
67186;HTU21D;54116;53.518;49.398;2024-02-04T06:44:05;-11.93;118.99
67186;HTU21D;54116;53.518;49.398;2024-02-04T06:46:32;-12.13;118.99
67186;HTU21D;54116;53.518;49.398;2024-02-04T06:48:58;-12.14;118.99
67186;HTU21D;54116;53.518;49.398;2024-02-04T06:51:25;-12.12;118.99
67186;HTU21D;54116;53.518;49.398;2024-02-04T06:53:52;-11.92;118.99
67186;HTU21D;54116;53.518;49.398;2024-02-04T06:56:18;-11.74;118.99
67186;HTU21D;54116;53.518;49.398;2024-02-04T06:58:44;-11.68;118.99
67186;HTU21D;54116;53.518;49.398;2024-02-04T07:01:11;-11.60;118.99
67186;HTU21D;54116;53.518;49.398;2024-02-04T07:03:37;-11.76;118.99
67186;HTU21D;54116;53.518;49.398;2024-02-04T07:06:03;-11.66;118.99
67186;HTU21D;54116;53.518;49.398;2024-02-04T07:08:29;-11.61;118.99
67186;HTU21D;54116;53.518;49.398;2024-02-04T07:10:55;-11.74;118.99
67186;HTU21D;54116;53.518;49.398;2024-02-04T07:13:21;-11.78;118.99
67186;HTU21D;54116;53.518;49.398;2024-02-04T07:15:48;-11.79;118.99
67186;HTU21D;54116;53.518;49.398;2024-02-04T07:18:14;-11.82;118.99
67186;HTU21D;54116;53.518;49.398;2024-02-04T07:20:40;-11.69;118.99
67186;HTU21D;54116;53.518;49.398;2024-02-04T07:23:06;-11.69;118.99
67186;HTU21D;54116;53.518;49.398;2024-02-04T07:25:32;-11.68;118.99
67186;HTU21D;54116;53.518;49.398;2024-02-04T07:28:00;-11.86;118.99
67186;HTU21D;54116;53.518;49.398;2024-02-04T07:30:26;-11.55;118.99
67186;HTU21D;54116;53.518;49.398;2024-02-04T07:32:52;-11.51;118.99
67186;HTU21D;54116;53.518;49.398;2024-02-04T07:35:18;-11.65;118.99
67186;HTU21D;54116;53.518;49.398;2024-02-04T07:37:44;-11.58;118.99
67186;HTU21D;54116;53.518;49.398;2024-02-04T07:40:11;-11.59;118.99
67186;HTU21D;54116;53.518;49.398;2024-02-04T07:42:37;-11.32;118.99
67186;HTU21D;54116;53.518;49.398;2024-02-04T07:45:04;-10.90;118.99
67186;HTU21D;54116;53.518;49.398;2024-02-04T07:47:35;-10.96;118.99
67186;HTU21D;54116;53.518;49.398;2024-02-04T07:50:02;-11.02;118.99
67186;HTU21D;54116;53.518;49.398;2024-02-04T07:52:28;-10.79;118.99
67186;HTU21D;54116;53.518;49.398;2024-02-04T07:54:56;-10.75;118.99
67186;HTU21D;54116;53.518;49.398;2024-02-04T07:57:22;-10.85;118.99
67186;HTU21D;54116;53.518;49.398;2024-02-04T07:59:48;-10.75;118.99
67186;HTU21D;54116;53.518;49.398;2024-02-04T08:02:14;-10.76;118.99
67186;HTU21D;54116;53.518;49.398;2024-02-04T08:04:41;-10.59;118.99
67186;HTU21D;54116;53.518;49.398;2024-02-04T08:07:07;-10.91;118.99
67186;HTU21D;54116;53.518;49.398;2024-02-04T08:09:33;-10.94;118.99
67186;HTU21D;54116;53.518;49.398;2024-02-04T08:12:00;-10.65;118.99
67186;HTU21D;54116;53.518;49.398;2024-02-04T08:14:26;-10.77;118.99
67186;HTU21D;54116;53.518;49.398;2024-02-04T08:16:53;-10.90;118.99
67186;HTU21D;54116;53.518;49.398;2024-02-04T08:19:19;-10.74;118.99
67186;HTU21D;54116;53.518;49.398;2024-02-04T08:21:45;-10.49;118.99
67186;HTU21D;54116;53.518;49.398;2024-02-04T08:24:11;-10.41;118.99
67186;HTU21D;54116;53.518;49.398;2024-02-04T08:26:37;-10.37;118.99
67186;HTU21D;54116;53.518;49.398;2024-02-04T08:29:03;-10.28;118.99
67186;HTU21D;54116;53.518;49.398;2024-02-04T08:31:32;-10.44;118.99
67186;HTU21D;54116;53.518;49.398;2024-02-04T08:34:01;-10.36;118.99
67186;HTU21D;54116;53.518;49.398;2024-02-04T08:36:29;-10.33;118.99
67186;HTU21D;54116;53.518;49.398;2024-02-04T08:38:56;-10.01;118.99
67186;HTU21D;54116;53.518;49.398;2024-02-04T08:41:22;-10.26;118.99
67186;HTU21D;54116;53.518;49.398;2024-02-04T08:43:48;-10.29;118.99
67186;HTU21D;54116;53.518;49.398;2024-02-04T08:46:15;-10.01;118.99
67186;HTU21D;54116;53.518;49.398;2024-02-04T08:48:42;-10.13;118.99
67186;HTU21D;54116;53.518;49.398;2024-02-04T08:51:13;-10.14;118.99
67186;HTU21D;54116;53.518;49.398;2024-02-04T08:53:42;-10.34;118.99
67186;HTU21D;54116;53.518;49.398;2024-02-04T08:56:08;-10.23;118.99
67186;HTU21D;54116;53.518;49.398;2024-02-04T08:58:35;-10.16;118.99
67186;HTU21D;54116;53.518;49.398;2024-02-04T09:01:04;-10.29;118.99
67186;HTU21D;54116;53.518;49.398;2024-02-04T09:03:31;-10.25;118.99
67186;HTU21D;54116;53.518;49.398;2024-02-04T09:05:59;-10.03;118.99
67186;HTU21D;54116;53.518;49.398;2024-02-04T09:08:26;-9.97;118.99
67186;HTU21D;54116;53.518;49.398;2024-02-04T09:10:52;-10.28;118.99
67186;HTU21D;54116;53.518;49.398;2024-02-04T09:13:18;-10.29;118.99
67186;HTU21D;54116;53.518;49.398;2024-02-04T09:15:45;-9.97;118.99
67186;HTU21D;54116;53.518;49.398;2024-02-04T09:18:11;-10.04;118.99
67186;HTU21D;54116;53.518;49.398;2024-02-04T09:20:39;-10.11;118.99
67186;HTU21D;54116;53.518;49.398;2024-02-04T09:23:06;-10.12;118.99
67186;HTU21D;54116;53.518;49.398;2024-02-04T09:25:32;-10.21;118.99
67186;HTU21D;54116;53.518;49.398;2024-02-04T09:27:58;-10.14;118.99
67186;HTU21D;54116;53.518;49.398;2024-02-04T09:30:25;-10.33;118.99
67186;HTU21D;54116;53.518;49.398;2024-02-04T09:32:51;-10.26;118.99
67186;HTU21D;54116;53.518;49.398;2024-02-04T09:35:17;-10.41;118.99
67186;HTU21D;54116;53.518;49.398;2024-02-04T09:37:43;-10.25;118.99
67186;HTU21D;54116;53.518;49.398;2024-02-04T09:40:10;-10.34;118.99
67186;HTU21D;54116;53.518;49.398;2024-02-04T09:42:36;-10.38;118.99
67186;HTU21D;54116;53.518;49.398;2024-02-04T09:45:03;-10.42;118.99
67186;HTU21D;54116;53.518;49.398;2024-02-04T09:47:29;-10.40;118.99
67186;HTU21D;54116;53.518;49.398;2024-02-04T09:49:57;-10.63;118.99
67186;HTU21D;54116;53.518;49.398;2024-02-04T09:52:30;-10.76;118.99
67186;HTU21D;54116;53.518;49.398;2024-02-04T09:55:00;-10.67;118.99
67186;HTU21D;54116;53.518;49.398;2024-02-04T09:57:29;-10.94;118.99
67186;HTU21D;54116;53.518;49.398;2024-02-04T09:59:55;-10.75;118.99
67186;HTU21D;54116;53.518;49.398;2024-02-04T10:02:22;-10.73;118.99
67186;HTU21D;54116;53.518;49.398;2024-02-04T10:04:49;-10.90;118.99
67186;HTU21D;54116;53.518;49.398;2024-02-04T10:07:15;-11.01;118.99
67186;HTU21D;54116;53.518;49.398;2024-02-04T10:09:44;-11.09;118.99
67186;HTU21D;54116;53.518;49.398;2024-02-04T10:12:12;-10.86;118.99
67186;HTU21D;54116;53.518;49.398;2024-02-04T10:14:38;-10.87;118.99
67186;HTU21D;54116;53.518;49.398;2024-02-04T10:17:07;-10.64;118.99
67186;HTU21D;54116;53.518;49.398;2024-02-04T10:19:33;-10.43;118.99
67186;HTU21D;54116;53.518;49.398;2024-02-04T10:22:03;-10.55;118.99
67186;HTU21D;54116;53.518;49.398;2024-02-04T10:24:29;-10.61;118.99
67186;HTU21D;54116;53.518;49.398;2024-02-04T10:26:56;-10.63;118.99
67186;HTU21D;54116;53.518;49.398;2024-02-04T10:29:23;-10.41;118.99
67186;HTU21D;54116;53.518;49.398;2024-02-04T10:31:55;-10.37;118.99
67186;HTU21D;54116;53.518;49.398;2024-02-04T10:34:25;-10.43;118.99
67186;HTU21D;54116;53.518;49.398;2024-02-04T10:36:52;-10.42;118.99
67186;HTU21D;54116;53.518;49.398;2024-02-04T10:39:18;-10.61;118.99
67186;HTU21D;54116;53.518;49.398;2024-02-04T10:41:49;-10.26;118.99
67186;HTU21D;54116;53.518;49.398;2024-02-04T10:44:21;-10.15;118.99
67186;HTU21D;54116;53.518;49.398;2024-02-04T10:46:49;-10.13;118.99
67186;HTU21D;54116;53.518;49.398;2024-02-04T10:49:18;-10.14;118.99
67186;HTU21D;54116;53.518;49.398;2024-02-04T10:51:45;-10.23;118.99
67186;HTU21D;54116;53.518;49.398;2024-02-04T10:54:16;-10.32;118.99
67186;HTU21D;54116;53.518;49.398;2024-02-04T10:56:44;-10.30;118.99
67186;HTU21D;54116;53.518;49.398;2024-02-04T10:59:11;-10.38;118.99
67186;HTU21D;54116;53.518;49.398;2024-02-04T11:01:39;-10.40;118.99
67186;HTU21D;54116;53.518;49.398;2024-02-04T11:04:06;-10.38;118.99
67186;HTU21D;54116;53.518;49.398;2024-02-04T11:06:35;-10.37;118.99
67186;HTU21D;54116;53.518;49.398;2024-02-04T11:09:03;-10.63;118.99
67186;HTU21D;54116;53.518;49.398;2024-02-04T11:11:32;-10.52;118.99
67186;HTU21D;54116;53.518;49.398;2024-02-04T11:14:00;-10.61;118.99
67186;HTU21D;54116;53.518;49.398;2024-02-04T11:22:11;-10.64;118.99
67186;HTU21D;54116;53.518;49.398;2024-02-04T11:27:20;-10.53;118.99
67186;HTU21D;54116;53.518;49.398;2024-02-04T11:29:46;-10.27;118.99
67186;HTU21D;54116;53.518;49.398;2024-02-04T11:32:12;-10.58;118.99
67186;HTU21D;54116;53.518;49.398;2024-02-04T11:34:39;-10.11;118.99
67186;HTU21D;54116;53.518;49.398;2024-02-04T11:37:18;-10.14;118.99
67186;HTU21D;54116;53.518;49.398;2024-02-04T11:39:52;-10.14;118.99
67186;HTU21D;54116;53.518;49.398;2024-02-04T11:42:18;-9.88;118.99
67186;HTU21D;54116;53.518;49.398;2024-02-04T11:44:46;-9.89;118.99
67186;HTU21D;54116;53.518;49.398;2024-02-04T11:47:25;-10.17;118.99
67186;HTU21D;54116;53.518;49.398;2024-02-04T11:49:56;-10.08;118.99
67186;HTU21D;54116;53.518;49.398;2024-02-04T11:52:23;-10.06;118.99
67186;HTU21D;54116;53.518;49.398;2024-02-04T11:54:49;-10.16;118.99
67186;HTU21D;54116;53.518;49.398;2024-02-04T11:57:16;-10.45;118.99
67186;HTU21D;54116;53.518;49.398;2024-02-04T11:59:42;-10.32;118.99
67186;HTU21D;54116;53.518;49.398;2024-02-04T12:02:12;-10.21;118.99
67186;HTU21D;54116;53.518;49.398;2024-02-04T12:04:38;-10.17;118.99
67186;HTU21D;54116;53.518;49.398;2024-02-04T12:07:08;-10.15;118.99
67186;HTU21D;54116;53.518;49.398;2024-02-04T12:09:35;-10.40;118.99
67186;HTU21D;54116;53.518;49.398;2024-02-04T12:12:02;-10.28;118.99
67186;HTU21D;54116;53.518;49.398;2024-02-04T12:14:32;-10.27;118.99
67186;HTU21D;54116;53.518;49.398;2024-02-04T12:17:07;-10.19;118.99
67186;HTU21D;54116;53.518;49.398;2024-02-04T12:19:34;-10.23;118.99
67186;HTU21D;54116;53.518;49.398;2024-02-04T12:22:00;-10.22;118.99
67186;HTU21D;54116;53.518;49.398;2024-02-04T12:24:27;-10.34;118.99
67186;HTU21D;54116;53.518;49.398;2024-02-04T12:26:53;-10.40;118.99
67186;HTU21D;54116;53.518;49.398;2024-02-04T12:29:20;-10.26;118.99
67186;HTU21D;54116;53.518;49.398;2024-02-04T12:31:47;-10.15;118.99
67186;HTU21D;54116;53.518;49.398;2024-02-04T12:34:13;-10.16;118.99
67186;HTU21D;54116;53.518;49.398;2024-02-04T12:36:39;-10.27;118.99
67186;HTU21D;54116;53.518;49.398;2024-02-04T12:39:05;-10.33;118.99
67186;HTU21D;54116;53.518;49.398;2024-02-04T12:41:35;-10.18;118.99
67186;HTU21D;54116;53.518;49.398;2024-02-04T12:44:01;-10.29;118.99
67186;HTU21D;54116;53.518;49.398;2024-02-04T12:46:30;-10.14;118.99
67186;HTU21D;54116;53.518;49.398;2024-02-04T12:48:58;-9.98;118.99
67186;HTU21D;54116;53.518;49.398;2024-02-04T12:51:30;-10.14;118.99
67186;HTU21D;54116;53.518;49.398;2024-02-04T12:54:11;-10.17;118.99
67186;HTU21D;54116;53.518;49.398;2024-02-04T12:59:26;-10.06;118.99
67186;HTU21D;54116;53.518;49.398;2024-02-04T13:02:06;-10.05;118.99
67186;HTU21D;54116;53.518;49.398;2024-02-04T13:04:36;-10.11;118.99
67186;HTU21D;54116;53.518;49.398;2024-02-04T13:07:15;-10.02;118.99
67186;HTU21D;54116;53.518;49.398;2024-02-04T13:09:44;-10.01;118.99
67186;HTU21D;54116;53.518;49.398;2024-02-04T13:12:14;-9.99;118.99
67186;HTU21D;54116;53.518;49.398;2024-02-04T13:14:42;-9.91;118.99
67186;HTU21D;54116;53.518;49.398;2024-02-04T13:17:08;-9.86;118.99
67186;HTU21D;54116;53.518;49.398;2024-02-04T13:19:37;-9.82;118.99
67186;HTU21D;54116;53.518;49.398;2024-02-04T13:22:04;-9.79;118.99
67186;HTU21D;54116;53.518;49.398;2024-02-04T13:24:32;-9.90;118.99
67186;HTU21D;54116;53.518;49.398;2024-02-04T13:27:01;-9.92;118.99
67186;HTU21D;54116;53.518;49.398;2024-02-04T13:29:31;-10.02;118.99
67186;HTU21D;54116;53.518;49.398;2024-02-04T13:31:57;-9.81;118.99
67186;HTU21D;54116;53.518;49.398;2024-02-04T13:34:25;-9.82;118.99
67186;HTU21D;54116;53.518;49.398;2024-02-04T13:36:58;-9.84;118.99
67186;HTU21D;54116;53.518;49.398;2024-02-04T13:39:25;-9.72;118.99
67186;HTU21D;54116;53.518;49.398;2024-02-04T13:41:51;-9.88;118.99
67186;HTU21D;54116;53.518;49.398;2024-02-04T13:44:17;-9.73;118.99
67186;HTU21D;54116;53.518;49.398;2024-02-04T13:46:43;-9.85;118.99
67186;HTU21D;54116;53.518;49.398;2024-02-04T13:49:10;-9.68;118.99
67186;HTU21D;54116;53.518;49.398;2024-02-04T13:51:37;-9.71;118.99
67186;HTU21D;54116;53.518;49.398;2024-02-04T13:54:04;-9.86;118.99
67186;HTU21D;54116;53.518;49.398;2024-02-04T13:56:30;-9.93;118.99
67186;HTU21D;54116;53.518;49.398;2024-02-04T13:58:56;-9.76;118.99
67186;HTU21D;54116;53.518;49.398;2024-02-04T14:01:22;-9.89;118.99
67186;HTU21D;54116;53.518;49.398;2024-02-04T14:03:52;-9.73;118.99
67186;HTU21D;54116;53.518;49.398;2024-02-04T14:06:21;-9.48;118.99
67186;HTU21D;54116;53.518;49.398;2024-02-04T14:08:47;-9.48;118.99
67186;HTU21D;54116;53.518;49.398;2024-02-04T14:11:13;-9.51;118.99
67186;HTU21D;54116;53.518;49.398;2024-02-04T14:13:39;-9.60;118.99
67186;HTU21D;54116;53.518;49.398;2024-02-04T14:16:06;-9.55;118.99
67186;HTU21D;54116;53.518;49.398;2024-02-04T14:18:35;-9.53;118.99
67186;HTU21D;54116;53.518;49.398;2024-02-04T14:21:01;-9.57;118.99
67186;HTU21D;54116;53.518;49.398;2024-02-04T14:23:27;-9.66;118.99
67186;HTU21D;54116;53.518;49.398;2024-02-04T14:25:54;-9.71;118.99
67186;HTU21D;54116;53.518;49.398;2024-02-04T14:28:20;-9.49;118.99
67186;HTU21D;54116;53.518;49.398;2024-02-04T14:30:47;-9.64;118.99
67186;HTU21D;54116;53.518;49.398;2024-02-04T14:33:13;-9.43;118.99
67186;HTU21D;54116;53.518;49.398;2024-02-04T14:35:39;-9.34;118.99
67186;HTU21D;54116;53.518;49.398;2024-02-04T14:38:05;-9.61;118.99
67186;HTU21D;54116;53.518;49.398;2024-02-04T14:40:32;-9.31;118.99
67186;HTU21D;54116;53.518;49.398;2024-02-04T14:42:58;-9.41;118.99
67186;HTU21D;54116;53.518;49.398;2024-02-04T14:45:26;-9.59;118.99
67186;HTU21D;54116;53.518;49.398;2024-02-04T14:47:52;-9.51;118.99
67186;HTU21D;54116;53.518;49.398;2024-02-04T14:50:18;-9.81;118.99
67186;HTU21D;54116;53.518;49.398;2024-02-04T14:52:47;-9.48;118.99